Time;durP1;ratioP1;P1;durP2;ratioP2;P2;SDS_P1;SDS_P2;PMS_P1;PMS_P2;Temp;Humidity;BMP_temperature;BMP_pressure;BME280_temperature;BME280_humidity;BME280_pressure;Samples;Min_cycle;Max_cycle;Signal;HPM_P1;HPM_P2
2021/12/16 00:02:27;;;;;;;39.45;35.85;;;;;;;-141.48;100.00;69781.59;5279159;28;20281;-85
2021/12/16 00:08:04;;;;;;;41.05;36.65;;;;;;;-141.48;100.00;69781.59;5270882;28;20032;-83
2021/12/16 00:10:43;;;;;;;40.75;36.70;;;;;;;-141.48;100.00;69781.59;5261428;28;20091;-83
2021/12/16 00:30:25;;;;;;;39.60;35.70;;;;;;;-141.48;100.00;69781.59;5280001;28;20074;-84
2021/12/16 00:35:51;;;;;;;39.25;35.30;;;;;;;-141.48;100.00;69781.59;5282910;28;20536;-83
2021/12/16 00:38:22;;;;;;;38.10;34.42;;;;;;;-141.48;100.00;69781.59;5283337;28;20023;-82
2021/12/16 00:40:53;;;;;;;34.67;31.27;;;;;;;-141.48;100.00;69781.59;5265689;28;20032;-83
2021/12/16 00:43:34;;;;;;;38.53;34.63;;;;;;;-141.48;100.00;69781.59;5281564;28;20024;-84
2021/12/16 00:54:12;;;;;;;40.60;32.28;;;;;;;-141.48;100.00;69781.59;5278816;28;20058;-84
2021/12/16 00:56:54;;;;;;;41.08;36.65;;;;;;;-141.48;100.00;69781.59;5259981;28;20024;-85
2021/12/16 00:59:28;;;;;;;37.53;33.38;;;;;;;-141.48;100.00;69781.59;5278479;28;20047;-86
2021/12/16 01:35:55;;;;;;;40.28;36.53;;;;;;;-141.48;100.00;69781.59;5282788;28;20039;-85
2021/12/16 01:50:03;;;;;;;40.25;34.22;;;;;;;-141.48;100.00;69781.59;5282156;28;20035;-86
2021/12/16 01:55:32;;;;;;;38.90;35.45;;;;;;;-141.48;100.00;69781.59;5282272;28;20070;-84
2021/12/16 01:58:15;;;;;;;41.10;36.08;;;;;;;-141.48;100.00;69781.59;5264608;28;20613;-86
2021/12/16 02:03:48;;;;;;;44.45;39.97;;;;;;;-141.48;100.00;69781.59;5285541;28;20028;-85
2021/12/16 02:09:13;;;;;;;43.33;37.53;;;;;;;-141.48;100.00;69781.59;5284324;28;19915;-85
2021/12/16 02:28:46;;;;;;;38.77;34.90;;;;;;;-141.48;100.00;69781.59;5288847;28;20038;-86
2021/12/16 02:36:43;;;;;;;36.60;33.22;;;;;;;-141.48;100.00;69781.59;5288111;28;20436;-85
2021/12/16 02:39:34;;;;;;;42.30;35.90;;;;;;;-141.48;100.00;69781.59;5286955;28;20028;-86
2021/12/16 02:42:13;;;;;;;38.28;34.50;;;;;;;-141.48;100.00;69781.59;5284382;28;20028;-85
2021/12/16 02:50:26;;;;;;;39.30;35.60;;;;;;;-141.48;100.00;69781.59;5286518;28;20032;-86
2021/12/16 02:52:57;;;;;;;42.55;38.20;;;;;;;-141.48;100.00;69781.59;5285901;28;20019;-84
2021/12/16 02:55:28;;;;;;;40.72;36.22;;;;;;;-141.48;100.00;69781.59;5282200;28;20065;-85
2021/12/16 02:58:00;;;;;;;40.63;36.15;;;;;;;-141.48;100.00;69781.59;5285029;28;20028;-85
2021/12/16 03:00:40;;;;;;;40.50;36.15;;;;;;;-141.48;100.00;69781.59;5263043;28;20114;-85
2021/12/16 03:03:11;;;;;;;41.35;37.65;;;;;;;-141.48;100.00;69781.59;5283755;28;20027;-85
2021/12/16 03:05:42;;;;;;;40.40;36.25;;;;;;;-141.48;100.00;69781.59;5286773;28;20083;-85
2021/12/16 03:08:12;;;;;;;43.58;36.42;;;;;;;-141.48;100.00;69781.59;5287849;28;20030;-86
2021/12/16 03:11:22;;;;;;;41.70;37.55;;;;;;;-141.48;100.00;69781.59;5271281;28;20047;-85
2021/12/16 03:13:50;;;;;;;37.40;33.55;;;;;;;-141.48;100.00;69781.59;5290374;28;20028;-81
2021/12/16 03:16:35;;;;;;;43.75;38.00;;;;;;;-141.48;100.00;69781.59;5272825;28;20035;-86
2021/12/16 03:19:22;;;;;;;41.45;37.65;;;;;;;-141.48;100.00;69781.59;5282988;28;20077;-83
2021/12/16 03:21:57;;;;;;;42.20;38.10;;;;;;;-141.48;100.00;69781.59;5280214;28;20024;-85
2021/12/16 03:25:06;;;;;;;38.13;34.13;;;;;;;-141.48;100.00;69781.59;5261569;28;20111;-84
2021/12/16 03:30:26;;;;;;;45.17;40.67;;;;;;;-141.48;100.00;69781.59;5280383;28;20065;-85
2021/12/16 03:38:35;;;;;;;39.10;35.15;;;;;;;-141.48;100.00;69781.59;5251826;28;20039;-84
2021/12/16 03:41:06;;;;;;;39.33;35.47;;;;;;;-141.48;100.00;69781.59;5280610;28;20031;-84
2021/12/16 03:43:38;;;;;;;40.22;36.10;;;;;;;-141.48;100.00;69781.59;5262576;28;20024;-83
2021/12/16 03:49:09;;;;;;;40.88;36.80;;;;;;;-141.48;100.00;69781.59;5281960;28;20166;-84
2021/12/16 03:52:00;;;;;;;41.45;37.35;;;;;;;-141.48;100.00;69781.59;5281070;28;20027;-84
2021/12/16 03:54:34;;;;;;;40.30;36.05;;;;;;;-141.48;100.00;69781.59;5280659;28;20020;-84
2021/12/16 03:57:09;;;;;;;39.25;35.08;;;;;;;-141.48;100.00;69781.59;5261667;28;20027;-84
2021/12/16 03:59:40;;;;;;;40.63;36.38;;;;;;;-141.48;100.00;69781.59;5279523;28;20027;-85
2021/12/16 04:02:15;;;;;;;37.72;34.17;;;;;;;-141.48;100.00;69781.59;5279694;28;20028;-85
2021/12/16 04:04:48;;;;;;;40.08;35.58;;;;;;;-141.48;100.00;69781.59;5280989;28;20016;-84
2021/12/16 04:07:22;;;;;;;38.83;34.75;;;;;;;-141.48;100.00;69781.59;5265952;28;20030;-84
2021/12/16 04:09:53;;;;;;;42.47;37.08;;;;;;;-141.48;100.00;69781.59;5264087;28;20087;-85
2021/12/16 04:12:26;;;;;;;39.00;35.75;;;;;;;-141.48;100.00;69781.59;5283518;28;20027;-83
2021/12/16 04:15:00;;;;;;;40.13;35.85;;;;;;;-141.48;100.00;69781.59;5263535;28;20031;-85
2021/12/16 04:17:32;;;;;;;40.63;36.53;;;;;;;-141.48;100.00;69781.59;5279393;28;20041;-84
2021/12/16 04:20:09;;;;;;;45.22;38.45;;;;;;;-141.48;100.00;69781.59;5280565;28;20085;-86
2021/12/16 04:22:43;;;;;;;42.17;37.83;;;;;;;-141.48;100.00;69781.59;5287664;28;20024;-85
2021/12/16 04:25:28;;;;;;;42.33;37.90;;;;;;;-141.48;100.00;69781.59;5268436;28;20022;-85
2021/12/16 04:28:02;;;;;;;40.10;35.78;;;;;;;-141.48;100.00;69781.59;5267129;28;20035;-86
2021/12/16 04:30:33;;;;;;;40.97;37.00;;;;;;;-141.48;100.00;69781.59;5283497;28;20054;-85
2021/12/16 04:33:04;;;;;;;36.40;32.92;;;;;;;-141.48;100.00;69781.59;5266062;28;20482;-84
2021/12/16 04:35:36;;;;;;;42.22;38.05;;;;;;;-141.48;100.00;69781.59;5284696;28;20028;-83
2021/12/16 04:38:08;;;;;;;37.05;33.35;;;;;;;-141.48;100.00;69781.59;5285684;28;20035;-84
2021/12/16 04:40:39;;;;;;;39.42;34.55;;;;;;;-141.48;100.00;69781.59;5285797;28;20016;-86
2021/12/16 04:43:10;;;;;;;40.30;36.35;;;;;;;-141.48;100.00;69781.59;5285522;28;20030;-82
2021/12/16 04:45:41;;;;;;;43.88;39.40;;;;;;;-141.48;100.00;69781.59;5267872;28;20016;-85
2021/12/16 04:48:12;;;;;;;38.10;34.72;;;;;;;-141.48;100.00;69781.59;5286661;28;20031;-84
2021/12/16 04:50:42;;;;;;;42.47;38.28;;;;;;;-141.48;100.00;69781.59;5286660;28;20107;-86
2021/12/16 04:53:13;;;;;;;39.78;35.55;;;;;;;-141.48;100.00;69781.59;5284907;28;20393;-85
2021/12/16 04:55:43;;;;;;;40.83;34.33;;;;;;;-141.48;100.00;69781.59;5286496;28;20028;-84
2021/12/16 04:58:14;;;;;;;38.78;34.60;;;;;;;-141.48;100.00;69781.59;5287727;28;20028;-85
2021/12/16 05:00:45;;;;;;;55.35;35.80;;;;;;;-141.48;100.00;69781.59;5270477;28;20028;-86
2021/12/16 05:03:15;;;;;;;39.38;35.03;;;;;;;-141.48;100.00;69781.59;5284886;28;20102;-83
2021/12/16 05:05:46;;;;;;;35.35;31.92;;;;;;;-141.48;100.00;69781.59;5265655;28;20024;-84
2021/12/16 05:08:17;;;;;;;37.03;33.50;;;;;;;-141.48;100.00;69781.59;5282455;28;20034;-86
2021/12/16 05:10:50;;;;;;;40.30;35.97;;;;;;;-141.48;100.00;69781.59;5282721;28;20039;-86
2021/12/16 05:13:25;;;;;;;40.65;36.33;;;;;;;-141.48;100.00;69781.59;5282771;28;20374;-84
2021/12/16 05:16:00;;;;;;;37.97;34.63;;;;;;;-141.48;100.00;69781.59;5282959;28;20028;-85
2021/12/16 05:18:36;;;;;;;38.47;35.05;;;;;;;-141.48;100.00;69781.59;5264425;28;20042;-86
2021/12/16 05:21:26;;;;;;;40.25;35.97;;;;;;;-141.48;100.00;69781.59;5283211;28;20040;-83
2021/12/16 05:26:46;;;;;;;47.30;42.87;;;;;;;-141.48;100.00;69781.59;5282677;28;20101;-86
2021/12/16 05:29:17;;;;;;;40.80;36.40;;;;;;;-141.48;100.00;69781.59;5281770;28;20703;-85
2021/12/16 05:31:48;;;;;;;40.65;36.65;;;;;;;-141.48;100.00;69781.59;5264173;28;20065;-85
2021/12/16 05:37:41;;;;;;;43.35;39.28;;;;;;;-141.48;100.00;69781.59;5268595;28;20047;-85
2021/12/16 05:40:24;;;;;;;41.20;36.60;;;;;;;-141.48;100.00;69781.59;5284398;28;20081;-85
2021/12/16 05:43:01;;;;;;;42.83;38.63;;;;;;;-141.48;100.00;69781.59;5283862;28;20028;-86
2021/12/16 05:45:32;;;;;;;41.88;38.08;;;;;;;-141.48;100.00;69781.59;5284334;28;20046;-86
2021/12/16 05:48:05;;;;;;;42.28;37.78;;;;;;;-141.48;100.00;69781.59;5284931;28;20020;-85
2021/12/16 05:50:43;;;;;;;43.58;35.88;;;;;;;-141.48;100.00;69781.59;5284035;28;20016;-83
2021/12/16 05:53:14;;;;;;;46.03;38.75;;;;;;;-141.48;100.00;69781.59;5266102;28;20074;-84
2021/12/16 05:55:45;;;;;;;40.30;36.47;;;;;;;-141.48;100.00;69781.59;5285090;28;20020;-83
2021/12/16 05:58:19;;;;;;;39.40;35.45;;;;;;;-141.48;100.00;69781.59;5284878;28;20024;-83
2021/12/16 06:00:55;;;;;;;41.53;37.58;;;;;;;-141.48;100.00;69781.59;5285130;28;20016;-82
2021/12/16 06:03:26;;;;;;;39.53;35.88;;;;;;;-141.48;100.00;69781.59;5284580;28;20028;-82
2021/12/16 06:05:57;;;;;;;43.47;39.03;;;;;;;-141.48;100.00;69781.59;5279976;28;20030;-86
2021/12/16 06:08:28;;;;;;;43.00;38.70;;;;;;;-141.48;100.00;69781.59;5277899;28;20034;-87
2021/12/16 06:13:42;;;;;;;43.53;38.50;;;;;;;-141.48;100.00;69781.59;5277975;28;20043;-85
2021/12/16 06:27:32;;;;;;;47.35;42.42;;;;;;;-141.48;100.00;69781.59;5276203;28;20034;-87
2021/12/16 06:30:07;;;;;;;40.08;35.92;;;;;;;-141.48;100.00;69781.59;5258538;28;20525;-87
2021/12/16 06:32:38;;;;;;;41.10;36.95;;;;;;;-141.48;100.00;69781.59;5257508;28;20059;-86
2021/12/16 06:35:10;;;;;;;48.35;41.33;;;;;;;-141.48;100.00;69781.59;5256207;28;20051;-86
2021/12/16 06:37:41;;;;;;;44.97;40.67;;;;;;;-141.48;100.00;69781.59;5277855;28;20024;-86
2021/12/16 06:40:14;;;;;;;42.97;38.63;;;;;;;-141.48;100.00;69781.59;5278732;28;20031;-86
2021/12/16 06:42:47;;;;;;;42.03;37.60;;;;;;;-141.48;100.00;69781.59;5277199;28;20035;-83
2021/12/16 06:45:24;;;;;;;45.45;40.08;;;;;;;-141.48;100.00;69781.59;5271110;28;20020;-83
2021/12/16 06:48:02;;;;;;;45.88;40.97;;;;;;;-141.48;100.00;69781.59;5273040;28;20031;-84
2021/12/16 06:53:31;;;;;;;42.67;38.45;;;;;;;-141.48;100.00;69781.59;5273317;28;20042;-83
2021/12/16 06:56:20;;;;;;;44.88;40.28;;;;;;;-141.48;100.00;69781.59;5271667;28;20024;-83
2021/12/16 06:59:04;;;;;;;40.50;36.40;;;;;;;-141.48;100.00;69781.59;5272046;28;20063;-83
2021/12/16 07:01:41;;;;;;;52.65;42.85;;;;;;;-141.48;100.00;69781.59;5271619;28;20024;-84
2021/12/16 07:04:13;;;;;;;42.42;38.03;;;;;;;-141.48;100.00;69781.59;5272488;28;20542;-83
2021/12/16 07:06:44;;;;;;;45.08;40.42;;;;;;;-141.48;100.00;69781.59;5254912;28;20109;-83
2021/12/16 07:09:18;;;;;;;46.63;39.45;;;;;;;-141.48;100.00;69781.59;5253356;28;20477;-82
2021/12/16 07:11:52;;;;;;;43.45;38.80;;;;;;;-141.48;100.00;69781.59;5252603;28;20049;-84
2021/12/16 07:14:35;;;;;;;44.72;40.13;;;;;;;-141.48;100.00;69781.59;5271738;28;20024;-83
2021/12/16 07:17:13;;;;;;;44.90;40.50;;;;;;;-141.48;100.00;69781.59;5255251;28;20032;-83
2021/12/16 07:19:55;;;;;;;45.60;41.35;;;;;;;-141.48;100.00;69781.59;5255988;28;20393;-82
2021/12/16 07:22:25;;;;;;;42.35;37.92;;;;;;;-141.48;100.00;69781.59;5274311;28;20084;-83
2021/12/16 07:24:56;;;;;;;51.92;38.63;;;;;;;-141.48;100.00;69781.59;5274137;28;20052;-83
2021/12/16 07:27:26;;;;;;;46.30;40.95;;;;;;;-141.48;100.00;69781.59;5273766;28;20031;-82
2021/12/16 07:29:57;;;;;;;44.72;39.97;;;;;;;-141.48;100.00;69781.59;5273364;28;20076;-83
2021/12/16 07:32:27;;;;;;;43.88;39.33;;;;;;;-141.48;100.00;69781.59;5273757;28;20031;-83
2021/12/16 07:34:58;;;;;;;57.78;43.38;;;;;;;-141.48;100.00;69781.59;5272999;28;20060;-84
2021/12/16 07:37:28;;;;;;;47.92;42.60;;;;;;;-141.48;100.00;69781.59;5254392;28;20053;-83
2021/12/16 07:40:05;;;;;;;46.72;41.92;;;;;;;-141.48;100.00;69781.59;5253544;28;20489;-82
2021/12/16 07:43:10;;;;;;;50.42;45.55;;;;;;;-141.48;100.00;69781.59;5271953;28;20482;-83
2021/12/16 07:45:45;;;;;;;46.97;42.33;;;;;;;-141.48;100.00;69781.59;5272760;28;20032;-83
2021/12/16 07:48:18;;;;;;;49.35;43.38;;;;;;;-141.48;100.00;69781.59;5272874;28;20034;-83
2021/12/16 07:50:54;;;;;;;47.60;42.03;;;;;;;-141.48;100.00;69781.59;5254249;28;20093;-82
2021/12/16 07:53:25;;;;;;;45.17;39.55;;;;;;;-141.48;100.00;69781.59;5271389;28;20101;-82
2021/12/16 07:55:56;;;;;;;49.10;43.95;;;;;;;-141.48;100.00;69781.59;5272075;28;20520;-84
2021/12/16 07:58:26;;;;;;;47.67;42.53;;;;;;;-141.48;100.00;69781.59;5271649;28;20020;-81
2021/12/16 08:00:57;;;;;;;47.80;43.03;;;;;;;-141.48;100.00;69781.59;5272129;28;20045;-83
2021/12/16 08:03:34;;;;;;;47.08;42.40;;;;;;;-141.48;100.00;69781.59;5272182;28;20027;-84
2021/12/16 08:06:10;;;;;;;46.42;41.40;;;;;;;-141.48;100.00;69781.59;5272635;28;20035;-83
2021/12/16 08:08:41;;;;;;;52.38;44.80;;;;;;;-141.48;100.00;69781.59;5271127;28;20028;-83
2021/12/16 08:11:11;;;;;;;56.80;44.70;;;;;;;-141.48;100.00;69781.59;5270191;28;20522;-83
2021/12/16 08:13:42;;;;;;;48.60;43.80;;;;;;;-141.48;100.00;69781.59;5269684;28;20474;-84
2021/12/16 08:16:12;;;;;;;53.38;42.20;;;;;;;-141.48;100.00;69781.59;5270501;28;20029;-83
2021/12/16 08:18:43;;;;;;;49.25;44.65;;;;;;;-141.48;100.00;69781.59;5270390;28;20024;-84
2021/12/16 08:21:13;;;;;;;45.63;40.28;;;;;;;-141.48;100.00;69781.59;5270558;28;20103;-83
2021/12/16 08:23:44;;;;;;;47.58;42.38;;;;;;;-141.48;100.00;69781.59;5270274;28;20035;-83
2021/12/16 08:26:15;;;;;;;47.70;42.88;;;;;;;-141.48;100.00;69781.59;5259397;28;20017;-83
2021/12/16 08:28:47;;;;;;;46.95;42.10;;;;;;;-141.48;100.00;69781.59;5231947;28;20112;-83
2021/12/16 08:31:17;;;;;;;49.13;43.60;;;;;;;-141.48;100.00;69781.59;5250160;28;20114;-84
2021/12/16 08:33:48;;;;;;;48.20;42.92;;;;;;;-141.48;100.00;69781.59;5248422;28;20028;-84
2021/12/16 08:36:19;;;;;;;48.05;42.28;;;;;;;-141.48;100.00;69781.59;5246627;28;20032;-83
2021/12/16 08:38:49;;;;;;;46.50;41.85;;;;;;;-141.48;100.00;69781.59;5248885;28;20025;-84
2021/12/16 08:41:26;;;;;;;46.92;41.83;;;;;;;-141.48;100.00;69781.59;5250164;28;20067;-81
2021/12/16 08:43:58;;;;;;;47.33;40.85;;;;;;;-141.48;100.00;69781.59;5250150;28;20033;-82
2021/12/16 08:46:32;;;;;;;47.75;43.17;;;;;;;-141.48;100.00;69781.59;5232102;28;20394;-84
2021/12/16 08:49:03;;;;;;;45.33;40.13;;;;;;;-141.48;100.00;69781.59;5250339;28;20116;-82
2021/12/16 08:51:41;;;;;;;48.97;42.15;;;;;;;-141.48;100.00;69781.59;5250086;28;20484;-85
2021/12/16 08:54:12;;;;;;;47.35;42.80;;;;;;;-141.48;100.00;69781.59;5249512;28;20025;-80
2021/12/16 08:56:43;;;;;;;47.53;42.53;;;;;;;-141.48;100.00;69781.59;5249204;28;20376;-85
2021/12/16 08:59:16;;;;;;;50.13;40.53;;;;;;;-141.48;100.00;69781.59;5231670;28;20021;-83
2021/12/16 09:01:51;;;;;;;41.67;37.35;;;;;;;-141.48;100.00;69781.59;5231968;28;20032;-83
2021/12/16 09:04:23;;;;;;;48.13;43.17;;;;;;;-141.48;100.00;69781.59;5249748;28;20382;-83
2021/12/16 09:07:00;;;;;;;46.60;41.65;;;;;;;-141.48;100.00;69781.59;5250068;28;20029;-83
2021/12/16 09:09:33;;;;;;;46.65;41.72;;;;;;;-141.48;100.00;69781.59;5232690;28;20029;-83
2021/12/16 09:12:25;;;;;;;42.90;38.25;;;;;;;-141.48;100.00;69781.59;5249560;28;20028;-83
2021/12/16 09:14:55;;;;;;;48.05;42.70;;;;;;;-141.48;100.00;69781.59;5249384;28;20035;-82
2021/12/16 09:17:26;;;;;;;46.72;40.17;;;;;;;-141.48;100.00;69781.59;5249445;28;20020;-82
2021/12/16 09:19:58;;;;;;;45.17;39.55;;;;;;;-141.48;100.00;69781.59;5249504;28;20089;-83
2021/12/16 09:22:28;;;;;;;41.10;36.65;;;;;;;-141.48;100.00;69781.59;5250894;28;20032;-83
2021/12/16 09:24:59;;;;;;;41.83;37.35;;;;;;;-141.48;100.00;69781.59;5253033;28;20024;-83
2021/12/16 09:27:29;;;;;;;45.28;38.30;;;;;;;-141.48;100.00;69781.59;5267426;28;20504;-83
2021/12/16 09:30:00;;;;;;;48.22;39.53;;;;;;;-141.48;100.00;69781.59;5259562;28;20027;-83
2021/12/16 09:32:32;;;;;;;44.50;39.88;;;;;;;-141.48;100.00;69781.59;5278901;28;20024;-83
2021/12/16 09:35:04;;;;;;;41.30;37.22;;;;;;;-141.48;100.00;69781.59;5278263;28;20047;-83
2021/12/16 09:37:35;;;;;;;38.42;33.90;;;;;;;-141.48;100.00;69781.59;5263476;28;20020;-83
2021/12/16 09:40:12;;;;;;;46.20;39.10;;;;;;;-141.48;100.00;69781.59;5277784;28;20027;-83
2021/12/16 09:42:43;;;;;;;46.47;37.58;;;;;;;-141.48;100.00;69781.59;5256502;28;20041;-83
2021/12/16 09:45:15;;;;;;;43.92;39.17;;;;;;;-141.48;100.00;69781.59;5274384;28;20024;-83
2021/12/16 09:47:45;;;;;;;40.97;36.72;;;;;;;-141.48;100.00;69781.59;5274641;28;20020;-82
2021/12/16 09:50:21;;;;;;;42.58;37.38;;;;;;;-141.48;100.00;69781.59;5274518;28;20026;-83
2021/12/16 09:52:51;;;;;;;49.15;40.25;;;;;;;-141.48;100.00;69781.59;5274311;28;20055;-83
2021/12/16 09:55:23;;;;;;;43.28;39.42;;;;;;;-141.48;100.00;69781.59;5255578;28;20020;-82
2021/12/16 09:57:54;;;;;;;46.40;39.00;;;;;;;-141.48;100.00;69781.59;5274300;28;20039;-82
2021/12/16 10:00:28;;;;;;;45.60;38.55;;;;;;;-141.48;100.00;69781.59;5274413;28;20478;-83
2021/12/16 10:03:00;;;;;;;44.15;39.53;;;;;;;-141.48;100.00;69781.59;5274080;28;20024;-83
2021/12/16 10:05:34;;;;;;;46.50;41.85;;;;;;;-141.48;100.00;69781.59;5273329;28;20036;-83
2021/12/16 10:08:05;;;;;;;47.80;42.67;;;;;;;-141.48;100.00;69781.59;5274100;28;20411;-83
2021/12/16 10:10:37;;;;;;;45.45;36.50;;;;;;;-141.48;100.00;69781.59;5273956;28;20549;-83
2021/12/16 10:13:07;;;;;;;44.10;39.95;;;;;;;-141.48;100.00;69781.59;5255962;28;20047;-83
2021/12/16 10:18:21;;;;;;;41.85;37.75;;;;;;;-141.48;100.00;69781.59;5273753;28;20547;-83
2021/12/16 10:20:56;;;;;;;43.63;39.17;;;;;;;-141.48;100.00;69781.59;5274171;28;20055;-83
2021/12/16 10:23:31;;;;;;;45.95;41.30;;;;;;;-141.48;100.00;69781.59;5273750;28;20016;-83
2021/12/16 10:26:09;;;;;;;46.35;37.03;;;;;;;-141.48;100.00;69781.59;5255568;28;20386;-82
2021/12/16 10:28:42;;;;;;;43.20;38.83;;;;;;;-141.48;100.00;69781.59;5274024;28;20031;-83
2021/12/16 10:31:19;;;;;;;50.22;41.13;;;;;;;-141.48;100.00;69781.59;5273836;28;20079;-83
2021/12/16 10:33:52;;;;;;;44.53;37.70;;;;;;;-141.48;100.00;69781.59;5273625;28;20070;-83
2021/12/16 10:36:34;;;;;;;48.63;42.53;;;;;;;-141.48;100.00;69781.59;5273618;28;20026;-82
2021/12/16 10:39:25;;;;;;;42.70;38.25;;;;;;;-141.48;100.00;69781.59;5273988;28;20460;-83
2021/12/16 10:42:00;;;;;;;45.13;40.42;;;;;;;-141.48;100.00;69781.59;5276016;28;20084;-82
2021/12/16 10:44:33;;;;;;;46.28;41.55;;;;;;;-141.48;100.00;69781.59;5266980;28;20043;-83
2021/12/16 10:47:13;;;;;;;49.22;37.75;;;;;;;-141.48;100.00;69781.59;5285985;28;20036;-82
2021/12/16 10:49:49;;;;;;;42.00;36.95;;;;;;;-141.48;100.00;69781.59;5289762;28;20375;-82
2021/12/16 10:52:26;;;;;;;41.80;37.22;;;;;;;-141.48;100.00;69781.59;5288557;28;20076;-81
2021/12/16 10:54:58;;;;;;;40.10;34.35;;;;;;;-141.48;100.00;69781.59;5280254;28;20074;-82
2021/12/16 10:57:31;;;;;;;38.80;34.55;;;;;;;-141.48;100.00;69781.59;5283086;28;20440;-81
2021/12/16 11:00:12;;;;;;;40.90;36.75;;;;;;;-141.48;100.00;69781.59;5279574;28;20147;-82
2021/12/16 11:02:42;;;;;;;41.25;37.13;;;;;;;-141.48;100.00;69781.59;5279088;28;20028;-82
2021/12/16 11:05:18;;;;;;;39.97;35.83;;;;;;;-141.48;100.00;69781.59;5280489;28;20020;-81
2021/12/16 11:07:51;;;;;;;39.92;35.83;;;;;;;-141.48;100.00;69781.59;5279936;28;20397;-82
2021/12/16 11:10:29;;;;;;;41.30;37.25;;;;;;;-141.48;100.00;69781.59;5278690;28;20051;-82
2021/12/16 11:13:07;;;;;;;37.85;32.17;;;;;;;-141.48;100.00;69781.59;5258797;28;20027;-82
2021/12/16 11:15:45;;;;;;;40.88;33.00;;;;;;;-141.48;100.00;69781.59;5277342;28;20062;-81
2021/12/16 11:18:20;;;;;;;43.80;36.45;;;;;;;-141.48;100.00;69781.59;5276426;28;20027;-82
2021/12/16 11:20:54;;;;;;;40.38;36.67;;;;;;;-141.48;100.00;69781.59;5276541;28;20747;-82
2021/12/16 11:23:30;;;;;;;37.80;34.00;;;;;;;-141.48;100.00;69781.59;5257938;28;20118;-82
2021/12/16 11:26:14;;;;;;;35.65;32.13;;;;;;;-141.48;100.00;69781.59;5276626;28;20127;-84
2021/12/16 11:28:49;;;;;;;35.85;32.45;;;;;;;-141.48;100.00;69781.59;5276470;28;20024;-83
2021/12/16 11:31:27;;;;;;;36.05;32.72;;;;;;;-141.48;100.00;69781.59;5276291;28;20389;-83
2021/12/16 11:34:02;;;;;;;35.65;32.17;;;;;;;-141.48;100.00;69781.59;5276577;28;20032;-84
2021/12/16 11:36:46;;;;;;;36.42;32.70;;;;;;;-141.48;100.00;69781.59;5276441;28;20363;-83
2021/12/16 11:39:29;;;;;;;34.22;28.15;;;;;;;-141.48;100.00;69781.59;5276363;28;20031;-83
2021/12/16 11:42:03;;;;;;;36.05;28.70;;;;;;;-141.48;100.00;69781.59;5276609;28;20075;-83
2021/12/16 11:44:39;;;;;;;33.70;30.23;;;;;;;-141.48;100.00;69781.59;5275355;28;20024;-83
2021/12/16 11:47:15;;;;;;;29.58;26.80;;;;;;;-141.48;100.00;69781.59;5258271;28;20016;-87
2021/12/16 11:49:53;;;;;;;30.27;26.58;;;;;;;-141.48;100.00;69781.59;5260036;28;20024;-86
2021/12/16 11:52:30;;;;;;;31.52;28.13;;;;;;;-141.48;100.00;69781.59;5276690;28;20026;-84
2021/12/16 11:55:13;;;;;;;33.00;29.10;;;;;;;-141.48;100.00;69781.59;5276823;28;20050;-85
2021/12/16 11:57:48;;;;;;;34.88;31.52;;;;;;;-141.48;100.00;69781.59;5275148;28;20024;-84
2021/12/16 12:00:20;;;;;;;31.50;28.60;;;;;;;-141.48;100.00;69781.59;5275829;28;20016;-85
2021/12/16 12:02:53;;;;;;;30.58;27.65;;;;;;;-141.48;100.00;69781.59;5275987;28;20047;-85
2021/12/16 12:05:36;;;;;;;26.35;23.60;;;;;;;-141.48;100.00;69781.59;5275757;28;20515;-84
2021/12/16 12:08:14;;;;;;;28.30;25.50;;;;;;;-141.48;100.00;69781.59;5258634;28;20081;-83
2021/12/16 12:10:46;;;;;;;26.23;22.80;;;;;;;-141.48;100.00;69781.59;5258138;28;20032;-85
2021/12/16 12:13:19;;;;;;;21.73;18.20;;;;;;;-141.48;100.00;69781.59;5275627;28;20046;-84
2021/12/16 12:15:55;;;;;;;20.40;17.80;;;;;;;-141.48;100.00;69781.59;5275514;28;20028;-87
2021/12/16 12:18:41;;;;;;;18.50;16.77;;;;;;;-141.48;100.00;69781.59;5257300;28;20024;-85
2021/12/16 12:21:27;;;;;;;19.33;17.38;;;;;;;-141.48;100.00;69781.59;5275361;28;20027;-85
2021/12/16 12:24:25;;;;;;;20.85;18.98;;;;;;;-141.48;100.00;69781.59;5276137;28;20535;-86
2021/12/16 12:26:57;;;;;;;30.42;16.83;;;;;;;-141.48;100.00;69781.59;5250802;28;20070;-84
2021/12/16 12:29:39;;;;;;;19.25;15.57;;;;;;;-141.48;100.00;69781.59;5257625;28;20031;-84
2021/12/16 12:32:14;;;;;;;14.63;13.27;;;;;;;-141.48;100.00;69781.59;5259061;28;20424;-85
2021/12/16 12:35:07;;;;;;;15.02;13.70;;;;;;;-141.48;100.00;69781.59;5260872;28;20012;-87
2021/12/16 12:37:41;;;;;;;14.63;12.93;;;;;;;-141.48;100.00;69781.59;5260274;28;20024;-87
2021/12/16 12:40:21;;;;;;;12.60;11.48;;;;;;;-141.48;100.00;69781.59;5259785;28;20050;-87
2021/12/16 12:42:53;;;;;;;10.70;9.77;;;;;;;-141.48;100.00;69781.59;5260403;28;20127;-87
2021/12/16 12:45:34;;;;;;;10.27;9.52;;;;;;;-141.48;100.00;69781.59;5277520;28;20046;-86
2021/12/16 12:48:10;;;;;;;11.15;10.05;;;;;;;-141.48;100.00;69781.59;5260495;28;20073;-87
2021/12/16 12:50:43;;;;;;;10.00;9.20;;;;;;;-141.48;100.00;69781.59;5260594;28;20058;-88
2021/12/16 12:53:25;;;;;;;12.13;10.98;;;;;;;-141.48;100.00;69781.59;5260098;28;20028;-87
2021/12/16 12:56:11;;;;;;;10.70;9.85;;;;;;;-141.48;100.00;69781.59;5260516;28;20024;-88
2021/12/16 12:59:06;;;;;;;10.43;9.35;;;;;;;-141.48;100.00;69781.59;5262819;28;20020;-87
2021/12/16 13:01:50;;;;;;;11.27;10.20;;;;;;;-141.48;100.00;69781.59;5264290;28;20428;-86
2021/12/16 13:04:26;;;;;;;9.82;7.68;;;;;;;-141.48;100.00;69781.59;5282882;28;20020;-86
2021/12/16 13:07:07;;;;;;;8.85;8.00;;;;;;;-141.48;100.00;69781.59;5267136;28;20056;-85
2021/12/16 13:09:45;;;;;;;8.30;7.60;;;;;;;-141.48;100.00;69781.59;5284006;28;20028;-86
2021/12/16 13:12:24;;;;;;;8.65;6.50;;;;;;;-141.48;100.00;69781.59;5264267;28;20016;-86
2021/12/16 13:15:04;;;;;;;;;;;;;;;-141.48;100.00;69781.59;5264439;28;20062;-86
2021/12/16 13:27:20;;;;;;;10.40;9.00;;;;;;;-141.48;100.00;69781.59;5286672;28;20032;-86
2021/12/16 13:32:45;;;;;;;9.82;9.07;;;;;;;-141.48;100.00;69781.59;5290559;28;20038;-85
2021/12/16 13:37:57;;;;;;;10.55;7.05;;;;;;;-141.48;100.00;69781.59;5294511;28;20058;-83
2021/12/16 13:40:31;;;;;;;8.27;7.55;;;;;;;-141.48;100.00;69781.59;5290577;28;20500;-85
2021/12/16 13:43:02;;;;;;;7.53;6.45;;;;;;;-141.48;100.00;69781.59;5289550;28;20035;-85
2021/12/16 13:45:48;;;;;;;8.38;7.45;;;;;;;-141.48;100.00;69781.59;5289938;28;20020;-85
2021/12/16 14:02:55;;;;;;;7.88;7.07;;;;;;;-141.48;100.00;69781.59;5290964;28;20031;-84
2021/12/16 14:05:38;;;;;;;8.35;7.22;;;;;;;-141.48;100.00;69781.59;5275060;28;20050;-85
2021/12/16 14:08:13;;;;;;;14.98;7.85;;;;;;;-141.48;100.00;69781.59;5293807;28;20028;-84
2021/12/16 14:10:51;;;;;;;9.02;7.13;;;;;;;-141.48;100.00;69781.59;5289564;28;20044;-85
2021/12/16 14:39:53;;;;;;;7.90;7.13;;;;;;;-141.48;100.00;69781.59;5283261;28;20052;-86
2021/12/16 14:45:42;;;;;;;8.75;7.85;;;;;;;-141.48;100.00;69781.59;5284672;28;20032;-86
2021/12/16 14:48:27;;;;;;;5.82;5.43;;;;;;;-141.48;100.00;69781.59;5285199;28;20028;-85
2021/12/16 14:51:14;;;;;;;8.82;6.57;;;;;;;-141.48;100.00;69781.59;5266993;28;20020;-85
2021/12/16 14:53:54;;;;;;;8.50;5.95;;;;;;;-141.48;100.00;69781.59;5284284;28;20099;-86
2021/12/16 14:56:28;;;;;;;6.53;5.93;;;;;;;-141.48;100.00;69781.59;5267561;28;20074;-85
2021/12/16 14:59:05;;;;;;;7.88;6.85;;;;;;;-141.48;100.00;69781.59;5285363;28;20016;-86
2021/12/16 15:01:39;;;;;;;6.95;6.55;;;;;;;-141.48;100.00;69781.59;5268125;28;20020;-85